Nearby METAR Reports

 

KW29 - Stevensville, Maryland, USA
Distance from station: SSW 13mi, 21km
Updated: Fri, 13-Dec-2019 2:55am EST
Mostly cloudy
Mostly cloudy
 Wind from N
Wind: N 6 mph , 9 km/h
Temperature: 32°F , 0°C
Wind Chill: 26°F , -3°C
Dew Point: 30°F , -1°C
Humidity: 93%
Barometer: 30.48 inHg , 1032.2 hPa
Clouds: Mostly cloudy
Visibility: 10 miles , 16 km
Cloud details: Mostly cloudy 3400 ft
Mostly cloudy 5500 ft
2019/12/13 07:55 KW29 130755Z AUTO 36005KT 10SM BKN034 BKN055 00/M01 A3048 RMK AO2
KMTN - Baltimore/Martin, Maryland, USA
Distance from station: NW 13mi, 22km
Updated: Fri, 13-Dec-2019 2:55am EST
Overcast
Overcast
 Wind from calm
Wind: Calm
Temperature: 32°F , 0°C
Dew Point: 28°F , -2°C
Humidity: 87%
Barometer: 30.50 inHg , 1032.8 hPa
Clouds: Overcast
Visibility: 10 miles , 16 km
Cloud details: Overcast 5000 ft
2019/12/13 07:55 KMTN 130755Z AUTO 00000KT 10SM OVC050 00/M02 A3050 RMK AO2
 
KNAK - Annapolis/Naval, Maryland, USA
Distance from station: SW 18mi, 28km
Updated: Fri, 13-Dec-2019 2:54am EST
Mostly cloudy
Mostly cloudy
 Wind from NNW
Wind: NNW 5 mph , 7 km/h
Temperature: 36°F , 2°C
Wind Chill: 32°F , 0°C
Dew Point: 30°F , -1°C
Humidity: 81%
Barometer: 30.48 inHg , 1032.2 hPa
Clouds: Mostly cloudy
Visibility: 10 miles , 16 km
Cloud details: Mostly cloudy 3800 ft
Mostly cloudy 4600 ft
Mostly cloudy 5500 ft
2019/12/13 07:54 KNAK 130754Z AUTO 34004KT 10SM BKN038 BKN046 BKN055 02/M01 A3048 RMK AO2 SLP321 T00171011
KAPG - Aberdeen/Phillip, Maryland, USA
Distance from station: NNE 21mi, 34km
Updated: Thu, 12-Dec-2019 4:46pm EST
NOT Current
Partly cloudy
Partly cloudy
 Wind from calm
Wind: Calm
Temperature: 32°F , 0°C
Dew Point: 19°F , -7°C
Humidity: 60%
Barometer: 30.67 inHg , 1038.6 hPa
Clouds: Partly cloudy
Visibility: 7 miles , 11 km
Cloud details: Partly cloudy 20000 ft
2019/12/12 21:46 KAPG 122146Z 00000KT 7SM SCT200 00/M07 A3067
 
KDMH - Baltimore/Dwntwn, Maryland, USA
Distance from station: WNW 21mi, 34km
Updated: Fri, 13-Dec-2019 2:54am EST

 
Temperature: 34°F , 1°C
Dew Point: 25°F , -4°C
Humidity: 70%
Barometer: 30.48 inHg , 1032.2 hPa
2019/12/13 07:54 KDMH 130754Z AUTO 01/M04 A3048 RMK AO1 SLP320 T00111039
KBWI - Balto/Wash Intl, Maryland, USA
Distance from station: W 23mi, 37km
Updated: Fri, 13-Dec-2019 2:54am EST
Overcast
Overcast
 Wind from calm
Wind: Calm
Temperature: 32°F , 0°C
Dew Point: 27°F , -3°C
Humidity: 80%
Barometer: 30.48 inHg , 1032.2 hPa
Clouds: Overcast
Visibility: 10 miles , 16 km
Cloud details: Partly cloudy 4200 ft
Mostly cloudy 5000 ft
Overcast 20000 ft
2019/12/13 07:54 KBWI 130754Z 00000KT 10SM SCT042 BKN050 OVC200 00/M03 A3048 RMK AO2 SLP321 T00001033
 
KESN - Easton/Newnam, Maryland, USA
Distance from station: SSE 27mi, 44km
Updated: Thu, 12-Dec-2019 9:50pm EST
NOT Current
Clear
Clear
 Wind from calm
Wind: Calm
Temperature: 32°F , 0°C
Dew Point: 27°F , -3°C
Humidity: 80%
Barometer: 30.63 inHg , 1037.3 hPa
Clouds: Clear
Visibility: 10 miles , 16 km
2019/12/13 02:50 KESN 130250Z 00000KT 10SM SKC 00/M03 A3063
KFME - Fort Meade, Maryland, USA
Distance from station: WSW 28mi, 45km
Updated: Fri, 13-Dec-2019 2:54am EST
Overcast
Overcast
 Wind from calm
Wind: Calm
Temperature: 30°F , -1°C
Dew Point: 27°F , -3°C
Humidity: 86%
Barometer: 30.50 inHg , 1032.8 hPa
Clouds: Overcast
Visibility: 10 miles , 16 km
Cloud details: Mostly cloudy 4100 ft
Overcast 5000 ft
2019/12/13 07:54 KFME 130754Z AUTO 00000KT 10SM BKN041 OVC050 M01/M03 A3050 RMK AO1
 
KCGS - College Park, Maryland, USA
Distance from station: WSW 38mi, 61km
Updated: Fri, 13-Dec-2019 2:56am EST
Overcast
Overcast
 Wind from calm
Wind: Calm
Temperature: 32°F , 0°C
Dew Point: 23°F , -5°C
Humidity: 69%
Barometer: 30.48 inHg , 1032.2 hPa
Clouds: Overcast
Visibility: 10 miles , 16 km
Cloud details: Overcast 4000 ft
2019/12/13 07:56 KCGS 130756Z AUTO 00000KT 10SM OVC040 00/M05 A3048 RMK AO1 T10021048
KADW - Andrews Afb, Maryland, USA
Distance from station: SW 41mi, 66km
Updated: Fri, 13-Dec-2019 2:56am EST
Overcast
Overcast
 Wind from N
Wind: N 5 mph , 7 km/h
Temperature: 32°F , 0°C
Wind Chill: 27°F , -3°C
Dew Point: 25°F , -4°C
Humidity: 75%
Barometer: 30.45 inHg , 1031.2 hPa
Clouds: Overcast
Visibility: 10 miles , 16 km
Cloud details: Overcast 3100 ft
2019/12/13 07:56 KADW 130756Z AUTO 01004KT 10SM OVC031 00/M04 A3045 RMK AO2 SLP321 T10021036 $
 
KDOV - Dover Afb, Delaware, USA
Distance from station: E 42mi, 68km
Updated: Fri, 13-Dec-2019 2:56am EST
Clear
Clear
 Wind from ENE
Wind: ENE 7 mph , 11 km/h
Temperature: 36°F , 2°C
Wind Chill: 30°F , -1°C
Dew Point: 32°F , 0°C
Humidity: 87%
Barometer: 30.46 inHg , 1031.5 hPa
Clouds: Clear
Visibility: 10 miles , 16 km
2019/12/13 07:56 KDOV 130756Z AUTO 06006KT 10SM CLR 02/00 A3046 RMK AO2 SLP318 T00170004 $
KCGE - Cambridge-Dorch, Maryland, USA
Distance from station: SSE 45mi, 73km
Updated: Fri, 13-Dec-2019 2:55am EST
Partly cloudy
Partly cloudy
 Wind from calm
Wind: Calm
Temperature: 28°F , -2°C
Dew Point: 27°F , -3°C
Humidity: 93%
Barometer: 30.45 inHg , 1031.2 hPa
Clouds: Partly cloudy
Visibility: 10 miles , 16 km
Cloud details: Partly cloudy 5000 ft
Partly cloudy 5500 ft
2019/12/13 07:55 KCGE 130755Z AUTO 00000KT 10SM SCT050 SCT055 M02/M03 A3045 RMK A01
 
KDCA - Washington/Natl, Washington D.c., USA
Distance from station: WSW 47mi, 76km
Updated: Fri, 13-Dec-2019 2:52am EST
Overcast
Overcast
 Wind from ENE
Wind: ENE 6 mph , 9 km/h
Temperature: 36°F , 2°C
Wind Chill: 31°F , -1°C
Dew Point: 27°F , -3°C
Humidity: 70%
Barometer: 30.49 inHg , 1032.5 hPa
Clouds: Overcast
Visibility: 8 miles , 13 km
Cloud details: Overcast 3600 ft
2019/12/13 07:52 KDCA 130752Z 06005KT 8SM OVC036 02/M03 A3049 RMK AO2 SLP322 T00171028
KGAI - Gaithersburg, Maryland, USA
Distance from station: W 49mi, 78km
Updated: Fri, 13-Dec-2019 2:56am EST
Overcast
Overcast
 Wind from calm
Wind: Calm
Temperature: 30°F , -1°C
Dew Point: 25°F , -4°C
Humidity: 80%
Barometer: 30.47 inHg , 1031.8 hPa
Clouds: Overcast
Visibility: 10 miles , 16 km
Cloud details: Overcast 3200 ft
2019/12/13 07:56 KGAI 130756Z AUTO 00000KT 10SM OVC032 M01/M04 A3047 RMK AO2 SLP338 T10111039 FZRANO
 
KILG - Wilmington, Delaware, USA
Distance from station: NE 49mi, 79km
Updated: Fri, 13-Dec-2019 2:51am EST
Mostly cloudy
Mostly cloudy
 Wind from ENE
Wind: ENE 7 mph , 11 km/h
Temperature: 34°F , 1°C
Wind Chill: 28°F , -2°C
Dew Point: 25°F , -4°C
Humidity: 70%
Barometer: 30.50 inHg , 1032.8 hPa
Clouds: Mostly cloudy
Visibility: 10 miles , 16 km
Cloud details: Partly cloudy 4100 ft
Mostly cloudy 4800 ft
2019/12/13 07:51 KILG 130751Z AUTO 07006KT 10SM SCT041 BKN048 01/M04 A3050 RMK AO2 SLP329 T00061039
KDMW - Carroll Cnty, Maryland, USA
Distance from station: NW 50mi, 80km
Updated: Fri, 13-Dec-2019 2:50am EST
Overcast
Overcast
 Wind from calm
Wind: Calm
Temperature: 32°F , 0°C
Dew Point: 28°F , -2°C
Humidity: 87%
Barometer: 30.45 inHg , 1031.2 hPa
Clouds: Overcast
Visibility: 10 miles , 16 km
Cloud details: Partly cloudy 2000 ft
Mostly cloudy 3100 ft
Overcast 3900 ft
2019/12/13 07:50 KDMW 130750Z AUTO 00000KT 10SM SCT020 BKN031 OVC039 00/M02 A3045 RMK AO2